CheckWX is a tool to help pilots better visualize weather data.  It is not intended as a substitute for an official pre-flight weather briefing.

17:44:52 UTC

KFOE TAF
Topeka Regional Airport
Topeka, Kansas, USA
KFOE 241732Z 2418/2518 29010KT P6SM BKN022 TEMPO 2418/2422 SCT022 BKN035 FM242200 35011KT P6SM BKN022 TEMPO 2422/2501 SCT022 BKN035 FM250100 36008KT P6SM BKN006

Mar-24@
18:00 UTC

Mar-24 @ 18:00 UTC

Mar-24@
22:00 UTC

Mar-24 @ 22:00 UTC

KFOE 241732Z 2418/2518 29010KT P6SM BKN022
Wind
  • 290° at 10 KTS
Cloud Levels
  • Broken at 2,200' AGL

Mar-24@
18:00 UTC

Mar-24 @ 18:00 UTC

Mar-24@
22:00 UTC

Mar-24 @ 22:00 UTC

TEMPO 2418/2422 SCT022 BKN035

Temporary

Temporary Changes expected for less than half the time period

Cloud Levels
  • Scattered at 2,200' AGL
  • Broken at 3,500' AGL

Mar-24@
22:00 UTC

Mar-24 @ 22:00 UTC

Mar-25@
01:00 UTC

Mar-25 @ 01:00 UTC

TEMPO 2422/2501 SCT022 BKN035

Temporary

Temporary Changes expected for less than half the time period

Cloud Levels
  • Scattered at 2,200' AGL
  • Broken at 3,500' AGL

Mar-24@
22:00 UTC

Mar-24 @ 22:00 UTC

Mar-25@
01:00 UTC

Mar-25 @ 01:00 UTC

FM242200 35011KT P6SM BKN022

From

From Standard forecast or significant change

Wind
  • 350° at 11 KTS
Cloud Levels
  • Broken at 2,200' AGL

Mar-25@
01:00 UTC

Mar-25 @ 01:00 UTC

Mar-25@
18:00 UTC

Mar-25 @ 18:00 UTC

FM250100 36008KT P6SM BKN006

From

From Standard forecast or significant change

Wind
  • 360° at 8 KTS
Cloud Levels
  • Broken at 600' AGL